createdAt,value
2022-09-13T00:01:12.721Z,12.43
2022-09-13T00:04:25.106Z,12.39
2022-09-13T00:07:36.796Z,12.37
2022-09-13T00:10:50.232Z,12.35
2022-09-13T00:14:03.548Z,12.29
2022-09-13T00:17:15.170Z,12.24
2022-09-13T00:20:27.297Z,12.21
2022-09-13T00:23:39.074Z,12.18
2022-09-13T00:26:50.768Z,12.11
2022-09-13T00:30:02.400Z,12.09
2022-09-13T00:33:14.110Z,12.09
2022-09-13T00:36:26.072Z,12.06
2022-09-13T00:39:37.802Z,12.03
2022-09-13T00:42:49.688Z,11.99
2022-09-13T00:46:01.432Z,11.97
2022-09-13T00:49:21.429Z,11.95
2022-09-13T00:52:36.108Z,11.94
2022-09-13T00:55:53.286Z,11.93
2022-09-13T00:59:09.419Z,11.93
2022-09-13T01:02:22.847Z,11.93
2022-09-13T01:05:39.697Z,11.91
2022-09-13T01:08:56.447Z,11.89
2022-09-13T01:12:12.717Z,11.91
2022-09-13T01:15:24.666Z,11.90
2022-09-13T01:18:36.251Z,11.90
2022-09-13T01:22:54.161Z,11.93
2022-09-13T01:27:14.034Z,11.93
2022-09-13T01:30:27.623Z,11.94
2022-09-13T01:33:59.849Z,11.89
2022-09-13T01:37:32.542Z,11.89
2022-09-13T01:40:57.548Z,11.90
2022-09-13T01:44:17.141Z,11.90
2022-09-13T01:47:34.662Z,11.90
2022-09-13T01:50:50.575Z,11.88
2022-09-13T01:54:16.570Z,11.88
2022-09-13T01:57:33.703Z,11.89
2022-09-13T02:00:51.657Z,11.85
2022-09-13T02:04:08.344Z,11.82
2022-09-13T02:07:25.080Z,11.80
2022-09-13T02:10:42.246Z,11.72
2022-09-13T02:14:00.530Z,11.65
2022-09-13T02:17:16.886Z,11.65
2022-09-13T02:20:33.277Z,11.59
2022-09-13T02:23:52.030Z,11.59
2022-09-13T02:27:08.316Z,11.58
2022-09-13T02:30:22.332Z,11.56
2022-09-13T02:33:39.290Z,11.52
2022-09-13T02:36:51.029Z,11.52
2022-09-13T02:40:08.820Z,11.49
2022-09-13T02:43:25.396Z,11.49
2022-09-13T02:46:49.719Z,11.48
2022-09-13T02:50:11.509Z,11.47
2022-09-13T02:53:29.477Z,11.44
2022-09-13T02:56:48.224Z,11.45
2022-09-13T03:00:00.144Z,11.44
2022-09-13T03:03:15.547Z,11.44
2022-09-13T03:06:32.966Z,11.41
2022-09-13T03:09:48.177Z,11.39
2022-09-13T03:13:31.566Z,11.33
2022-09-13T03:17:02.802Z,11.29
2022-09-13T03:20:23.034Z,11.31
2022-09-13T03:23:48.777Z,11.28
2022-09-13T03:27:14.850Z,11.26
2022-09-13T03:30:27.015Z,11.20
2022-09-13T03:33:46.592Z,11.19
2022-09-13T03:37:02.641Z,11.18
2022-09-13T03:40:19.742Z,11.18
2022-09-13T03:43:36.915Z,11.19
2022-09-13T03:47:07.760Z,11.16
2022-09-13T03:50:24.620Z,11.14
2022-09-13T03:53:45.163Z,11.15
2022-09-13T03:57:26.139Z,11.12
2022-09-13T04:00:40.649Z,10.98
2022-09-13T04:03:55.976Z,11.00
2022-09-13T04:07:06.345Z,10.93
2022-09-13T04:10:18.708Z,10.84
2022-09-13T04:13:31.052Z,10.84
2022-09-13T04:16:42.702Z,10.81
2022-09-13T04:19:57.240Z,10.70
2022-09-13T04:23:09.441Z,10.61
2022-09-13T04:26:21.580Z,10.61
2022-09-13T04:29:33.972Z,10.52
2022-09-13T04:32:48.558Z,10.44
2022-09-13T04:36:07.416Z,10.37
2022-09-13T04:39:22.102Z,10.51
2022-09-13T04:42:34.715Z,10.57
2022-09-13T04:45:48.419Z,10.61
2022-09-13T04:49:02.386Z,10.66
2022-09-13T04:52:14.352Z,10.79
2022-09-13T04:55:26.740Z,10.86
2022-09-13T04:58:38.810Z,10.95
2022-09-13T05:01:50.771Z,11.00
2022-09-13T05:05:02.648Z,11.13
2022-09-13T05:08:14.641Z,11.24
2022-09-13T05:11:27.782Z,11.30
2022-09-13T05:14:39.630Z,11.42
2022-09-13T05:17:51.233Z,11.56
2022-09-13T05:21:05.034Z,11.76
2022-09-13T05:24:16.891Z,11.95
2022-09-13T05:27:28.560Z,12.09
2022-09-13T05:30:42.366Z,12.22
2022-09-13T05:33:58.797Z,12.33
2022-09-13T05:37:10.403Z,12.43
2022-09-13T05:40:22.315Z,12.58
2022-09-13T05:43:36.212Z,12.81
2022-09-13T05:46:53.413Z,13.15
2022-09-13T05:50:12.020Z,13.67
2022-09-13T05:53:30.153Z,14.14
2022-09-13T05:56:52.662Z,14.75
2022-09-13T06:00:17.481Z,15.30
2022-09-13T06:03:29.943Z,15.32
2022-09-13T06:06:42.252Z,15.63
2022-09-13T06:09:53.967Z,16.13
2022-09-13T06:13:16.327Z,16.55
2022-09-13T06:16:28.419Z,16.89
2022-09-13T06:19:41.544Z,17.28
2022-09-13T06:30:19.611Z,18.34
2022-09-13T06:33:39.851Z,18.82
2022-09-13T06:40:32.643Z,19.54
2022-09-13T06:43:45.918Z,19.53
2022-09-13T06:46:57.561Z,20.09
2022-09-13T06:53:56.476Z,20.43
2022-09-13T06:57:08.078Z,20.61
2022-09-13T07:00:22.190Z,20.73
2022-09-13T07:03:43.994Z,21.13
2022-09-13T07:10:37.772Z,21.52
2022-09-13T07:13:54.602Z,21.50
2022-09-13T07:17:06.378Z,21.83
2022-09-13T07:20:31.072Z,21.92
2022-09-13T07:23:52.165Z,22.17
2022-09-13T07:27:04.053Z,22.83
2022-09-13T07:30:17.193Z,22.85
2022-09-13T07:33:28.864Z,22.78
2022-09-13T07:36:42.107Z,22.74
2022-09-13T07:39:53.653Z,22.59
2022-09-13T07:43:05.488Z,22.23
2022-09-13T07:46:21.361Z,21.91
2022-09-13T07:49:32.982Z,22.13
2022-09-13T07:52:44.531Z,21.92
2022-09-13T07:55:56.031Z,21.71
2022-09-13T07:59:10.222Z,21.75
2022-09-13T08:02:23.693Z,21.26
2022-09-13T08:05:35.518Z,22.06
2022-09-13T08:08:47.244Z,22.23
2022-09-13T08:12:01.205Z,21.86
2022-09-13T08:15:14.964Z,21.54
2022-09-13T08:18:26.886Z,21.75
2022-09-13T08:21:42.824Z,22.16
2022-09-13T08:24:54.438Z,22.34
2022-09-13T08:28:06.148Z,22.33
2022-09-13T08:31:20.724Z,22.39
2022-09-13T08:34:32.623Z,22.99
2022-09-13T08:37:44.111Z,23.35
2022-09-13T08:41:01.070Z,23.53
2022-09-13T08:44:18.065Z,23.45
2022-09-13T08:47:44.909Z,24.04
2022-09-13T08:51:00.755Z,24.46
2022-09-13T08:54:16.189Z,24.18
2022-09-13T08:57:34.131Z,24.21
2022-09-13T09:00:50.661Z,23.99
2022-09-13T09:04:04.071Z,24.51
2022-09-13T09:07:21.377Z,24.69
2022-09-13T09:10:37.733Z,24.38
2022-09-13T09:13:54.644Z,24.59
2022-09-13T09:17:10.959Z,24.56
2022-09-13T09:20:36.093Z,24.75
2022-09-13T09:23:52.757Z,25.89
2022-09-13T09:27:03.727Z,24.66
2022-09-13T09:30:20.802Z,24.14
2022-09-13T09:33:45.441Z,25.08
2022-09-13T09:37:03.845Z,23.86
2022-09-13T09:40:20.848Z,23.48
2022-09-13T09:43:37.998Z,22.81
2022-09-13T09:46:53.394Z,22.66
2022-09-13T09:50:14.453Z,22.56
2022-09-13T09:53:36.160Z,23.20
2022-09-13T09:56:56.556Z,23.17
2022-09-13T10:00:20.224Z,22.99
2022-09-13T10:03:36.162Z,23.22
2022-09-13T10:06:50.059Z,23.79
2022-09-13T10:10:08.969Z,23.53
2022-09-13T10:13:31.045Z,23.47
2022-09-13T10:16:40.287Z,23.68
2022-09-13T10:20:04.026Z,23.38
2022-09-13T10:23:27.452Z,23.31
2022-09-13T10:26:41.753Z,23.02
2022-09-13T10:29:59.842Z,22.76
2022-09-13T10:33:14.320Z,22.74
2022-09-13T10:36:51.257Z,22.79
2022-09-13T10:39:53.117Z,22.55
2022-09-13T10:43:09.148Z,22.60
2022-09-13T10:46:27.613Z,22.48
2022-09-13T10:49:53.324Z,22.25
2022-09-13T10:53:06.471Z,22.22
2022-09-13T10:56:27.258Z,22.08
2022-09-13T10:59:38.801Z,22.02
2022-09-13T11:03:21.100Z,22.34
2022-09-13T11:06:39.791Z,22.16
2022-09-13T11:09:57.566Z,22.28
2022-09-13T11:13:19.210Z,22.44
2022-09-13T11:16:46.065Z,22.62
2022-09-13T11:20:27.745Z,22.34
2022-09-13T11:24:02.144Z,22.17
2022-09-13T11:27:19.345Z,22.02
2022-09-13T11:30:34.498Z,21.94
2022-09-13T11:33:57.968Z,22.04
2022-09-13T11:37:29.126Z,22.42
2022-09-13T11:40:51.439Z,22.55
2022-09-13T11:44:34.289Z,22.58
2022-09-13T11:47:57.232Z,22.54
2022-09-13T11:51:16.133Z,22.85
2022-09-13T11:54:40.097Z,22.72
2022-09-13T11:57:56.684Z,22.84
2022-09-13T12:01:12.868Z,23.07
2022-09-13T12:04:33.637Z,23.49
2022-09-13T12:07:49.092Z,23.68
2022-09-13T12:11:04.257Z,23.72
2022-09-13T12:14:22.367Z,23.47
2022-09-13T12:17:39.170Z,23.62
2022-09-13T12:20:52.309Z,23.56
2022-09-13T12:24:08.089Z,23.95
2022-09-13T12:27:26.973Z,23.82
2022-09-13T12:30:47.309Z,23.69
2022-09-13T12:33:59.934Z,23.94
2022-09-13T12:37:40.405Z,24.09
2022-09-13T12:41:34.457Z,23.94
2022-09-13T12:45:01.283Z,23.35
2022-09-13T12:48:41.386Z,22.84
2022-09-13T12:52:27.958Z,22.36
2022-09-13T12:56:12.033Z,21.94
2022-09-13T13:00:04.671Z,21.94
2022-09-13T13:03:24.556Z,21.76
2022-09-13T13:06:41.682Z,21.64
2022-09-13T13:09:57.117Z,21.45
2022-09-13T13:13:25.229Z,21.48
2022-09-13T13:16:40.778Z,21.54
2022-09-13T13:19:52.838Z,21.52
2022-09-13T13:23:19.523Z,21.48
2022-09-13T13:27:01.232Z,21.51
2022-09-13T13:30:57.651Z,21.45
2022-09-13T13:34:35.156Z,21.73
2022-09-13T13:37:46.967Z,21.65
2022-09-13T13:41:05.122Z,21.85
2022-09-13T13:45:10.854Z,22.23
2022-09-13T13:48:33.018Z,22.07
2022-09-13T13:51:44.858Z,22.02
2022-09-13T13:55:25.530Z,22.01
2022-09-13T13:58:55.059Z,21.83
2022-09-13T14:02:07.701Z,21.57
2022-09-13T14:05:26.349Z,21.38
2022-09-13T14:08:50.250Z,21.39
2022-09-13T14:12:21.995Z,21.48
2022-09-13T14:15:51.290Z,21.60
2022-09-13T14:19:27.963Z,21.87
2022-09-13T14:22:39.600Z,22.15
2022-09-13T14:25:51.782Z,22.22
2022-09-13T14:29:03.395Z,22.21
2022-09-13T14:32:21.671Z,22.24
2022-09-13T14:35:37.689Z,22.13
2022-09-13T14:38:55.787Z,21.98
2022-09-13T14:42:15.866Z,21.91
2022-09-13T14:45:30.988Z,21.86
2022-09-13T14:48:52.331Z,21.65
2022-09-13T14:52:08.759Z,21.57
2022-09-13T14:55:24.518Z,21.43
2022-09-13T14:58:41.150Z,21.25
2022-09-13T15:01:53.250Z,21.15
2022-09-13T15:05:09.094Z,21.10
2022-09-13T15:08:52.065Z,21.05
2022-09-13T15:12:07.910Z,21.03
2022-09-13T15:15:34.226Z,20.99
2022-09-13T15:18:46.136Z,20.94
2022-09-13T15:21:57.924Z,20.91
2022-09-13T15:25:11.095Z,20.86
2022-09-13T15:28:30.605Z,20.74
2022-09-13T15:31:43.081Z,20.72
2022-09-13T15:34:56.582Z,20.61
2022-09-13T15:38:22.205Z,20.58
2022-09-13T15:41:38.008Z,20.52
2022-09-13T15:44:49.719Z,20.47
2022-09-13T15:48:01.284Z,20.43
2022-09-13T15:51:17.561Z,20.36
2022-09-13T15:54:33.814Z,20.30
2022-09-13T15:57:45.735Z,20.19
2022-09-13T16:00:57.419Z,20.19
2022-09-13T16:04:09.537Z,20.15
2022-09-13T16:07:21.826Z,20.09
2022-09-13T16:10:34.056Z,19.99
2022-09-13T16:13:45.966Z,20.00
2022-09-13T16:16:57.562Z,19.93
2022-09-13T16:20:11.605Z,19.87
2022-09-13T16:23:23.347Z,19.82
2022-09-13T16:26:38.012Z,19.78
2022-09-13T16:29:50.051Z,19.76
2022-09-13T16:33:02.179Z,19.72
2022-09-13T16:36:16.332Z,19.69
2022-09-13T16:39:28.119Z,19.63
2022-09-13T16:42:40.472Z,19.60
2022-09-13T16:45:52.052Z,19.55
2022-09-13T16:49:04.623Z,19.48
2022-09-13T16:52:16.952Z,19.42
2022-09-13T16:55:28.577Z,19.28
2022-09-13T16:58:42.376Z,19.29
2022-09-13T17:01:54.210Z,19.22
2022-09-13T17:05:09.285Z,19.20
2022-09-13T17:08:21.550Z,19.17
2022-09-13T17:11:35.761Z,19.11
2022-09-13T17:14:51.507Z,19.07
2022-09-13T17:18:04.182Z,19.05
2022-09-13T17:21:17.458Z,19.09
2022-09-13T17:24:31.529Z,19.02
2022-09-13T17:27:43.600Z,18.97
2022-09-13T17:30:56.817Z,18.94
2022-09-13T17:34:09.906Z,18.89
2022-09-13T17:37:35.477Z,18.86
2022-09-13T17:41:01.446Z,18.80
2022-09-13T17:44:14.273Z,18.75
2022-09-13T17:51:13.801Z,18.63
2022-09-13T17:54:26.192Z,18.60
2022-09-13T17:57:39.209Z,18.45
2022-09-13T18:01:04.013Z,18.51
2022-09-13T18:04:22.097Z,18.46
2022-09-13T18:15:32.346Z,18.34
2022-09-13T18:18:46.244Z,18.34
2022-09-13T18:22:00.463Z,18.28
2022-09-13T18:25:14.936Z,18.29
2022-09-13T18:28:26.970Z,18.29
2022-09-13T18:31:42.500Z,18.28
2022-09-13T18:43:55.660Z,18.33
2022-09-13T19:22:58.412Z,17.95
2022-09-13T19:26:25.217Z,17.92
2022-09-13T19:29:44.301Z,17.88
2022-09-13T19:33:02.921Z,17.89
2022-09-13T19:36:20.332Z,17.90
2022-09-13T19:39:34.230Z,17.90
2022-09-13T19:42:48.374Z,17.90
2022-09-13T19:46:10.434Z,17.91
2022-09-13T19:49:35.619Z,17.92
2022-09-13T19:52:50.749Z,17.92
2022-09-13T19:56:04.901Z,17.93
2022-09-13T19:59:20.957Z,17.92
2022-09-13T20:02:33.209Z,17.92
2022-09-13T20:05:47.014Z,17.93
2022-09-13T20:12:01.397Z,17.91
2022-09-13T20:15:21.022Z,17.91
2022-09-13T20:18:41.497Z,17.90
2022-09-13T20:21:56.225Z,17.90
2022-09-13T20:25:13.268Z,17.90
2022-09-13T20:28:33.028Z,17.90
2022-09-13T20:32:06.058Z,17.88
2022-09-13T20:35:22.400Z,17.89
2022-09-13T20:38:35.911Z,17.89
2022-09-13T20:41:50.604Z,17.90
2022-09-13T20:45:05.600Z,17.89
2022-09-13T20:48:29.070Z,17.88
2022-09-13T20:51:42.493Z,17.85
2022-09-13T20:54:54.989Z,17.85
2022-09-13T20:58:08.601Z,17.82
2022-09-13T21:01:23.124Z,17.79
2022-09-13T21:04:36.407Z,17.76
2022-09-13T21:08:02.644Z,17.72
2022-09-13T21:11:17.057Z,17.62
2022-09-13T21:14:30.773Z,17.59
2022-09-13T21:17:45.234Z,17.57
2022-09-13T21:21:04.676Z,17.53
2022-09-13T21:27:19.358Z,17.50
2022-09-13T21:30:31.810Z,17.52
2022-09-13T21:33:43.628Z,17.52
2022-09-13T21:36:59.144Z,17.50
2022-09-13T21:40:15.243Z,17.44
2022-09-13T21:43:31.489Z,17.48
2022-09-13T21:46:46.536Z,17.42
2022-09-13T21:49:58.385Z,17.44
2022-09-13T21:53:10.431Z,17.47
2022-09-13T21:56:24.062Z,17.48
2022-09-13T21:59:35.797Z,17.51
2022-09-13T22:02:47.664Z,17.53
2022-09-13T22:06:03.985Z,17.54
2022-09-13T22:09:18.188Z,17.54
2022-09-13T22:12:32.049Z,17.55
2022-09-13T22:15:45.451Z,17.55
2022-09-13T22:19:07.947Z,17.57
2022-09-13T22:22:17.820Z,17.56
2022-09-13T22:25:36.910Z,17.54
2022-09-13T22:28:50.192Z,17.53
2022-09-13T22:32:01.981Z,17.51
2022-09-13T22:35:15.823Z,17.43
2022-09-13T22:38:29.018Z,17.44
2022-09-13T22:41:43.673Z,17.45
2022-09-13T22:44:56.871Z,17.48
2022-09-13T22:48:12.574Z,17.51
2022-09-13T22:51:25.825Z,17.53
2022-09-13T22:54:37.573Z,17.54
2022-09-13T22:57:49.140Z,17.58
2022-09-13T23:01:07.944Z,17.58
2022-09-13T23:04:20.138Z,17.60
2022-09-13T23:07:31.781Z,17.61
2022-09-13T23:10:46.303Z,17.60
2022-09-13T23:14:02.279Z,17.58
2022-09-13T23:17:13.867Z,17.55
2022-09-13T23:20:25.377Z,17.52
2022-09-13T23:23:36.943Z,17.28
2022-09-13T23:26:52.051Z,17.44
2022-09-13T23:30:05.002Z,17.41
2022-09-13T23:33:19.760Z,17.36
2022-09-13T23:36:35.528Z,17.32
2022-09-13T23:39:49.468Z,17.28
2022-09-13T23:43:04.978Z,17.26
2022-09-13T23:46:21.883Z,17.21
2022-09-13T23:49:35.732Z,17.04
2022-09-13T23:52:49.259Z,16.82
2022-09-13T23:56:04.935Z,16.58
2022-09-13T23:59:20.177Z,16.41
